Time;durP1;ratioP1;P1;durP2;ratioP2;P2;SDS_P1;SDS_P2;PMS_P1;PMS_P2;Temp;Humidity;BMP_temperature;BMP_pressure;BME280_temperature;BME280_humidity;BME280_pressure;Samples;Min_cycle;Max_cycle;Signal;HPM_P1;HPM_P2
2023/06/17 00:00:50;;;;;;;20.20;18.10;;;;;;;18.07;68.61;99686.10;105070;1250;109859;-64
2023/06/17 00:03:37;;;;;;;22.20;19.80;;;;;;;18.08;69.19;99687.12;104798;1251;140922;-64
2023/06/17 00:06:04;;;;;;;22.40;18.80;;;;;;;18.08;69.75;99685.21;105104;1251;94491;-64
2023/06/17 00:08:31;;;;;;;20.60;18.50;;;;;;;18.05;70.02;99681.23;105053;1251;108367;-63
2023/06/17 00:10:59;;;;;;;20.00;17.90;;;;;;;18.02;69.84;99680.54;104952;1251;138834;-63
2023/06/17 00:13:26;;;;;;;23.30;17.60;;;;;;;17.98;69.80;99681.55;105129;1251;109913;-63
2023/06/17 00:15:56;;;;;;;22.10;19.10;;;;;;;17.94;70.10;99676.17;104985;1253;138875;-63
2023/06/17 00:18:24;;;;;;;20.60;17.00;;;;;;;17.91;70.40;99676.25;105150;1250;94683;-63
2023/06/17 00:20:52;;;;;;;19.30;16.30;;;;;;;17.89;70.38;99676.23;105104;1251;108024;-63
2023/06/17 00:23:20;;;;;;;16.80;15.10;;;;;;;17.86;70.47;99673.80;105023;1251;138111;-63
2023/06/17 00:25:47;;;;;;;19.30;14.90;;;;;;;17.82;70.28;99672.80;105170;1253;109519;-63
2023/06/17 00:28:15;;;;;;;15.90;13.90;;;;;;;17.80;70.28;99673.86;105001;1253;138280;-63
2023/06/17 00:30:42;;;;;;;14.20;12.60;;;;;;;17.76;70.12;99670.98;105122;1251;94470;-64
2023/06/17 00:33:09;;;;;;;14.10;12.60;;;;;;;17.71;69.89;99668.70;104994;1249;138126;-64
2023/06/17 00:35:36;;;;;;;13.80;12.40;;;;;;;17.69;69.88;99670.05;105155;1251;94549;-63
2023/06/17 00:38:04;;;;;;;13.60;12.30;;;;;;;17.67;70.06;99666.17;105164;1251;109274;-64
2023/06/17 00:40:32;;;;;;;14.10;12.30;;;;;;;17.65;70.08;99668.95;104972;1250;138277;-63
2023/06/17 00:42:59;;;;;;;15.20;13.50;;;;;;;17.64;70.48;99665.64;105089;1251;94456;-63
2023/06/17 00:45:26;;;;;;;15.70;13.80;;;;;;;17.60;70.22;99664.52;105046;1250;139160;-63
2023/06/17 00:47:54;;;;;;;16.90;14.80;;;;;;;17.54;70.43;99659.83;105106;1249;94568;-63
2023/06/17 00:50:21;;;;;;;16.40;14.40;;;;;;;17.51;70.92;99661.95;104974;1251;110123;-63
2023/06/17 00:52:53;;;;;;;16.90;15.10;;;;;;;17.50;71.56;99661.15;104944;1251;138754;-64
2023/06/17 00:55:21;;;;;;;16.50;14.80;;;;;;;17.49;71.62;99662.27;105064;1251;94778;-63
2023/06/17 00:57:49;;;;;;;19.00;14.40;;;;;;;17.49;71.86;99662.48;105010;1251;139452;-63
2023/06/17 01:00:18;;;;;;;15.70;14.10;;;;;;;17.47;71.85;99659.11;105098;1250;94771;-63
2023/06/17 01:02:46;;;;;;;16.80;14.60;;;;;;;17.46;72.37;99659.30;105083;1251;111282;-63
2023/06/17 01:05:16;;;;;;;15.70;14.00;;;;;;;17.45;72.50;99659.27;104983;1251;138084;-63
2023/06/17 01:08:03;;;;;;;17.40;15.00;;;;;;;17.41;72.59;99656.51;104963;1250;94922;-63
2023/06/17 01:10:38;;;;;;;17.30;14.20;;;;;;;17.38;72.78;99656.02;105004;1251;138093;-63
2023/06/17 01:17:12;;;;;;;14.40;12.70;;;;;;;17.30;72.82;99650.41;104402;1251;138660;-62
2023/06/17 01:19:40;;;;;;;15.00;13.50;;;;;;;17.29;72.81;99649.33;103809;1253;108100;-63
2023/06/17 01:22:11;;;;;;;17.10;13.20;;;;;;;17.27;72.88;99650.88;103755;1253;138331;-62
2023/06/17 01:24:38;;;;;;;14.70;13.10;;;;;;;17.25;73.12;99650.45;104212;1251;108535;-62
2023/06/17 01:27:06;;;;;;;15.10;12.60;;;;;;;17.25;73.32;99651.52;103733;1251;138469;-63
2023/06/17 01:29:36;;;;;;;17.90;13.50;;;;;;;17.25;73.38;99649.98;103727;1251;110684;-62
2023/06/17 01:32:06;;;;;;;15.50;12.60;;;;;;;17.20;73.13;99648.51;103628;1251;106692;-62
2023/06/17 01:34:44;;;;;;;12.70;11.50;;;;;;;17.13;72.88;99650.54;104176;1251;138323;-63
2023/06/17 01:37:12;;;;;;;12.20;11.00;;;;;;;17.08;72.85;99653.92;103774;1250;107430;-63
2023/06/17 01:39:43;;;;;;;14.60;11.00;;;;;;;17.03;72.82;99654.73;104105;1251;138514;-63
2023/06/17 01:42:16;;;;;;;12.30;9.80;;;;;;;16.97;72.64;99658.73;104428;1251;109965;-64
2023/06/17 01:44:46;;;;;;;13.20;10.80;;;;;;;16.91;72.58;99654.20;103740;1252;107652;-63
2023/06/17 01:47:13;;;;;;;9.90;8.80;;;;;;;16.88;72.68;99656.69;104449;1250;138337;-63
2023/06/17 01:49:40;;;;;;;11.00;7.70;;;;;;;16.84;72.88;99658.12;104041;1252;107662;-63
2023/06/17 01:52:11;;;;;;;9.90;8.30;;;;;;;16.80;72.55;99654.54;104112;1251;138937;-64
2023/06/17 01:54:38;;;;;;;12.20;8.90;;;;;;;16.75;72.78;99653.15;104172;1251;109532;-64
2023/06/17 01:57:06;;;;;;;9.10;8.10;;;;;;;16.72;72.80;99650.23;103496;1251;138272;-63
2023/06/17 01:59:34;;;;;;;9.10;8.00;;;;;;;16.66;72.77;99647.23;104071;1251;96427;-62
2023/06/17 02:02:01;;;;;;;10.30;7.90;;;;;;;16.60;73.08;99645.34;103840;1251;107769;-62
2023/06/17 02:04:28;;;;;;;9.70;8.10;;;;;;;16.54;73.04;99641.35;103711;1251;138211;-62
2023/06/17 02:06:56;;;;;;;10.00;8.20;;;;;;;16.49;72.99;99640.48;103756;1251;110320;-63
2023/06/17 02:09:23;;;;;;;9.40;7.50;;;;;;;16.43;73.25;99638.42;103500;1249;138360;-62
2023/06/17 02:11:50;;;;;;;8.90;8.00;;;;;;;16.39;73.49;99638.13;103824;1251;96405;-63
2023/06/17 02:14:18;;;;;;;9.20;8.00;;;;;;;16.40;74.06;99631.25;103784;1254;108225;-62
2023/06/17 02:16:47;;;;;;;8.60;7.40;;;;;;;16.41;74.42;99629.06;103871;1251;137998;-62
2023/06/17 02:19:15;;;;;;;8.00;7.20;;;;;;;16.42;74.34;99623.77;103614;1254;110403;-62
2023/06/17 02:21:46;;;;;;;8.50;7.60;;;;;;;16.42;74.25;99624.83;104151;1251;138247;-63
2023/06/17 02:24:13;;;;;;;9.00;8.00;;;;;;;16.40;74.40;99622.67;104770;1251;96408;-63
2023/06/17 02:26:41;;;;;;;8.70;7.70;;;;;;;16.40;74.86;99625.10;104073;1250;110119;-63
2023/06/17 02:29:09;;;;;;;8.50;7.10;;;;;;;16.39;74.73;99619.02;103627;1251;138036;-63
2023/06/17 02:31:36;;;;;;;9.30;6.70;;;;;;;16.39;74.76;99618.70;103735;1251;111677;-63
2023/06/17 02:34:03;;;;;;;9.60;7.40;;;;;;;16.40;75.13;99617.73;103470;1251;138156;-63
2023/06/17 02:36:31;;;;;;;8.90;7.10;;;;;;;16.40;74.93;99613.86;103616;1254;96411;-63
2023/06/17 02:39:00;;;;;;;9.80;6.90;;;;;;;16.40;75.01;99612.14;103660;1253;108044;-63
2023/06/17 02:41:28;;;;;;;8.40;7.10;;;;;;;16.39;75.03;99613.95;104130;1251;96242;-63
2023/06/17 02:43:55;;;;;;;7.90;6.90;;;;;;;16.39;75.31;99609.26;103591;1253;110118;-63
2023/06/17 02:46:23;;;;;;;7.40;6.50;;;;;;;16.39;75.43;99604.48;103654;1251;138031;-63
2023/06/17 02:48:50;;;;;;;9.80;7.40;;;;;;;16.39;75.39;99606.77;103684;1253;96600;-63
2023/06/17 02:51:18;;;;;;;10.10;7.20;;;;;;;16.37;75.27;99606.20;103698;1253;138518;-63
2023/06/17 02:53:45;;;;;;;7.80;6.80;;;;;;;16.36;75.26;99601.92;103730;1250;96434;-63
2023/06/17 02:56:14;;;;;;;9.20;7.00;;;;;;;16.35;75.01;99603.38;103803;1251;110330;-63
2023/06/17 02:58:43;;;;;;;8.40;7.10;;;;;;;16.32;74.91;99602.77;103608;1250;137961;-63
2023/06/17 03:01:12;;;;;;;7.40;6.50;;;;;;;16.31;74.99;99604.77;104036;1251;96306;-63
2023/06/17 03:03:41;;;;;;;7.50;6.60;;;;;;;16.30;74.88;99603.42;103782;1253;138190;-64
2023/06/17 03:06:09;;;;;;;9.30;7.70;;;;;;;16.29;74.88;99603.16;103780;1250;96447;-63
2023/06/17 03:08:40;;;;;;;12.00;7.70;;;;;;;16.28;74.62;99605.84;104370;1251;110627;-63
2023/06/17 03:11:07;;;;;;;10.10;8.00;;;;;;;16.26;74.63;99603.92;104219;1249;138098;-63
2023/06/17 03:13:35;;;;;;;9.30;8.30;;;;;;;16.24;74.52;99605.07;104034;1251;97468;-62
2023/06/17 03:16:05;;;;;;;13.60;8.80;;;;;;;16.25;74.71;99605.22;104661;1251;138184;-62
2023/06/17 03:18:33;;;;;;;11.80;8.40;;;;;;;16.25;74.85;99605.22;103674;1250;96460;-62
2023/06/17 03:21:00;;;;;;;9.70;8.20;;;;;;;16.25;75.12;99609.91;103964;1251;110848;-62
2023/06/17 03:23:28;;;;;;;9.40;7.90;;;;;;;16.27;75.31;99607.67;104051;1253;107665;-62
2023/06/17 03:25:55;;;;;;;9.70;7.70;;;;;;;16.28;75.31;99607.25;103958;1251;96439;-62
2023/06/17 03:28:22;;;;;;;14.00;8.50;;;;;;;16.29;75.28;99606.33;103907;1251;138208;-62
2023/06/17 03:30:53;;;;;;;8.80;7.90;;;;;;;16.30;75.15;99609.77;103918;1253;96302;-62
2023/06/17 03:33:20;;;;;;;10.60;7.90;;;;;;;16.29;75.00;99616.70;104357;1250;138081;-62
2023/06/17 03:35:47;;;;;;;8.90;7.90;;;;;;;16.26;74.81;99616.86;103892;1249;107726;-62
2023/06/17 03:38:14;;;;;;;9.40;8.40;;;;;;;16.23;74.72;99620.98;103808;1251;96453;-63
2023/06/17 03:40:42;;;;;;;9.70;8.60;;;;;;;16.20;74.62;99628.55;103881;1251;137823;-62
2023/06/17 03:43:10;;;;;;;11.50;8.70;;;;;;;16.18;74.75;99626.41;103800;1251;96332;-65
2023/06/17 03:45:37;;;;;;;9.90;8.90;;;;;;;16.18;75.04;99628.64;103882;1251;138184;-62
2023/06/17 03:48:05;;;;;;;12.10;9.40;;;;;;;16.19;74.88;99631.23;104100;1249;108592;-62
2023/06/17 03:50:33;;;;;;;11.40;9.20;;;;;;;16.18;74.87;99632.14;103639;1251;96457;-63
2023/06/17 03:53:01;;;;;;;11.10;9.70;;;;;;;16.18;74.88;99630.91;103865;1251;140206;-62
2023/06/17 03:55:29;;;;;;;10.20;9.20;;;;;;;16.20;74.95;99628.86;103895;1251;96597;-62
2023/06/17 03:57:56;;;;;;;10.70;9.70;;;;;;;16.22;75.14;99625.91;103965;1251;138524;-62
2023/06/17 04:00:26;;;;;;;11.50;10.30;;;;;;;16.24;75.01;99623.70;103691;1251;108704;-62
2023/06/17 04:02:53;;;;;;;11.30;9.60;;;;;;;16.24;75.02;99622.14;104009;1251;96739;-62
2023/06/17 04:05:32;;;;;;;14.60;10.40;;;;;;;16.24;75.24;99624.00;104239;1250;107260;-62
2023/06/17 04:08:02;;;;;;;13.10;10.60;;;;;;;16.24;75.17;99623.88;104245;1249;96411;-63
2023/06/17 04:10:30;;;;;;;12.00;10.30;;;;;;;16.24;75.06;99619.28;103999;1251;138066;-63
2023/06/17 04:12:57;;;;;;;10.70;9.60;;;;;;;16.26;75.12;99618.13;104034;1250;108830;-62
2023/06/17 04:15:25;;;;;;;12.50;9.50;;;;;;;16.28;75.09;99610.08;103783;1250;138498;-63
2023/06/17 04:17:53;;;;;;;11.50;9.30;;;;;;;16.31;74.97;99610.95;103799;1250;107227;-63
2023/06/17 04:20:25;;;;;;;11.40;10.30;;;;;;;16.33;75.19;99605.88;103835;1250;96456;-63
2023/06/17 04:22:53;;;;;;;12.30;11.00;;;;;;;16.37;75.06;99609.18;103902;1253;138169;-63
2023/06/17 04:25:22;;;;;;;11.30;10.20;;;;;;;16.38;75.10;99603.48;103761;1250;108369;-62
2023/06/17 04:27:53;;;;;;;11.70;9.90;;;;;;;16.41;74.88;99603.65;103969;1253;138239;-62
2023/06/17 04:30:25;;;;;;;12.40;10.20;;;;;;;16.45;74.82;99605.27;103878;1251;108653;-62
2023/06/17 04:32:55;;;;;;;11.60;10.30;;;;;;;16.51;75.04;99602.98;103872;1252;96475;-62
2023/06/17 04:35:23;;;;;;;11.50;10.30;;;;;;;16.57;75.08;99602.40;103526;1251;138270;-63
2023/06/17 04:37:53;;;;;;;11.90;10.10;;;;;;;16.63;75.02;99601.63;104155;1250;108771;-63
2023/06/17 04:40:22;;;;;;;12.20;10.90;;;;;;;16.69;74.93;99597.92;103710;1251;139870;-62
2023/06/17 04:42:50;;;;;;;12.40;10.40;;;;;;;16.75;74.78;99599.45;103691;1250;108568;-62
2023/06/17 04:45:18;;;;;;;11.70;10.60;;;;;;;16.78;74.53;99597.46;103825;1249;138503;-63
2023/06/17 04:47:48;;;;;;;12.00;10.80;;;;;;;16.82;74.46;99598.62;103972;1253;110630;-63
2023/06/17 04:50:16;;;;;;;15.20;10.70;;;;;;;16.88;74.43;99598.73;103775;1251;107819;-62
2023/06/17 04:52:47;;;;;;;11.80;10.50;;;;;;;16.98;74.71;99602.46;104004;1250;138366;-63
2023/06/17 04:55:18;;;;;;;12.70;11.20;;;;;;;17.08;74.60;99602.83;103754;1253;109084;-62
2023/06/17 04:57:46;;;;;;;12.80;11.40;;;;;;;17.18;74.70;99601.69;103990;1250;138474;-62
2023/06/17 05:00:18;;;;;;;12.50;11.30;;;;;;;17.32;74.70;99605.33;103825;1250;110508;-62
2023/06/17 05:02:50;;;;;;;11.90;10.40;;;;;;;17.42;74.48;99604.77;103673;1250;107708;-62
2023/06/17 05:05:18;;;;;;;10.50;9.50;;;;;;;17.51;73.89;99601.52;104437;1251;139099;-62
2023/06/17 05:07:45;;;;;;;12.00;10.60;;;;;;;17.60;73.51;99605.98;103791;1250;107254;-62
2023/06/17 05:10:14;;;;;;;12.00;10.80;;;;;;;17.73;73.27;99610.52;103839;1251;138812;-62
2023/06/17 05:12:42;;;;;;;11.50;10.20;;;;;;;17.88;72.85;99606.46;103800;1253;109101;-62
2023/06/17 05:15:11;;;;;;;10.80;9.60;;;;;;;18.03;72.40;99609.23;103584;1250;138461;-63
2023/06/17 05:17:38;;;;;;;11.70;10.00;;;;;;;18.20;72.24;99612.73;103781;1251;96577;-63
2023/06/17 05:20:09;;;;;;;10.70;9.60;;;;;;;18.35;71.94;99609.15;103815;1249;108312;-62
2023/06/17 05:22:37;;;;;;;10.80;9.30;;;;;;;18.46;71.60;99609.94;103675;1251;138243;-63
2023/06/17 05:25:05;;;;;;;12.40;10.00;;;;;;;18.58;71.25;99610.23;103838;1250;109914;-62
2023/06/17 05:27:32;;;;;;;11.00;9.60;;;;;;;18.69;71.17;99615.39;103705;1251;138453;-63
2023/06/17 05:29:59;;;;;;;12.10;10.30;;;;;;;18.77;70.66;99613.56;103859;1251;96411;-62
2023/06/17 05:32:26;;;;;;;11.60;10.00;;;;;;;18.81;70.27;99612.20;103714;1250;108963;-63
2023/06/17 05:34:54;;;;;;;10.30;9.10;;;;;;;18.86;69.97;99616.05;103558;1251;138397;-63
2023/06/17 05:37:21;;;;;;;10.10;9.10;;;;;;;18.93;69.51;99617.30;103802;1251;110570;-63
2023/06/17 05:39:48;;;;;;;10.00;8.80;;;;;;;18.99;69.12;99618.91;103439;1250;138111;-63
2023/06/17 05:42:15;;;;;;;10.10;8.60;;;;;;;19.11;68.99;99617.69;103554;1248;96491;-63
2023/06/17 05:44:44;;;;;;;10.40;9.40;;;;;;;19.21;68.69;99617.36;103634;1253;108375;-63
2023/06/17 05:47:11;;;;;;;9.60;8.60;;;;;;;19.36;68.59;99619.60;103472;1253;138470;-63
2023/06/17 05:49:39;;;;;;;9.80;8.50;;;;;;;19.54;68.43;99619.73;105172;1249;109440;-64
2023/06/17 05:52:07;;;;;;;10.30;9.00;;;;;;;19.77;67.98;99614.71;104917;1251;137964;-64
2023/06/17 05:54:34;;;;;;;9.10;8.20;;;;;;;20.05;67.48;99617.63;104179;1250;96510;-64
2023/06/17 05:57:01;;;;;;;8.70;7.90;;;;;;;20.34;66.81;99616.30;103711;1253;108296;-64
2023/06/17 05:59:29;;;;;;;10.30;8.60;;;;;;;20.62;66.42;99609.38;103731;1253;223851;-64
2023/06/17 06:01:57;;;;;;;11.30;8.40;;;;;;;20.90;66.09;99609.95;103968;1250;110093;-64
2023/06/17 06:04:24;;;;;;;10.50;9.10;;;;;;;21.16;65.45;99607.95;103530;1253;138962;-63
2023/06/17 06:06:51;;;;;;;12.60;10.20;;;;;;;21.42;65.28;99611.39;103773;1250;96415;-63
2023/06/17 06:09:20;;;;;;;9.50;8.00;;;;;;;21.71;64.75;99612.55;104172;1250;138347;-64
2023/06/17 06:11:47;;;;;;;9.30;8.00;;;;;;;21.98;63.78;99614.23;103643;1250;96510;-64
2023/06/17 06:14:14;;;;;;;8.20;7.40;;;;;;;22.25;62.97;99619.41;103841;1253;110449;-63
2023/06/17 06:16:45;;;;;;;11.80;7.50;;;;;;;22.59;62.27;99619.08;103491;1251;138758;-63
2023/06/17 06:19:14;;;;;;;7.80;7.00;;;;;;;23.06;61.68;99617.59;103823;1251;95331;-63
2023/06/17 06:21:42;;;;;;;7.70;7.00;;;;;;;23.76;60.32;99621.36;103478;1253;137301;-64
2023/06/17 06:24:09;;;;;;;8.00;7.20;;;;;;;24.54;58.79;99620.26;103693;1250;96446;-63
2023/06/17 06:26:37;;;;;;;8.00;7.30;;;;;;;25.00;56.91;99619.16;103768;1250;109845;-63
2023/06/17 06:29:04;;;;;;;8.10;6.90;;;;;;;25.27;55.83;99620.77;103708;1250;137272;-63
2023/06/17 06:31:32;;;;;;;9.40;7.20;;;;;;;25.49;54.79;99620.69;103881;1251;96425;-63
2023/06/17 06:33:59;;;;;;;8.70;7.80;;;;;;;25.56;54.03;99624.14;103665;1250;137722;-63
2023/06/17 06:36:26;;;;;;;8.60;7.50;;;;;;;25.77;53.83;99623.09;103660;1250;96529;-64
2023/06/17 06:38:54;;;;;;;9.50;7.10;;;;;;;26.04;53.32;99624.15;103826;1249;110407;-63
2023/06/17 06:41:21;;;;;;;8.40;7.30;;;;;;;26.52;52.75;99620.86;103679;1249;137309;-64
2023/06/17 06:43:56;;;;;;;8.60;7.50;;;;;;;27.12;51.59;99616.27;103832;1250;96417;-63
2023/06/17 06:46:23;;;;;;;6.90;6.30;;;;;;;27.41;50.42;99618.02;103517;1253;137327;-64
2023/06/17 06:48:50;;;;;;;7.20;5.60;;;;;;;27.55;49.23;99618.08;103891;1251;96411;-64
2023/06/17 06:51:18;;;;;;;6.90;6.10;;;;;;;27.61;47.66;99617.67;103636;1252;137359;-65
2023/06/17 06:53:45;;;;;;;6.50;5.80;;;;;;;27.65;47.18;99618.15;103739;1252;107339;-64
2023/06/17 06:56:13;;;;;;;7.10;5.70;;;;;;;27.84;46.69;99614.90;103856;1251;96418;-65
2023/06/17 06:58:41;;;;;;;7.20;6.40;;;;;;;27.89;46.29;99613.30;103568;1250;137108;-64
2023/06/17 07:01:08;;;;;;;6.60;6.00;;;;;;;27.99;45.74;99610.92;103736;1248;96443;-64
2023/06/17 07:03:36;;;;;;;7.90;5.90;;;;;;;28.22;45.64;99613.36;103595;1250;137669;-65
2023/06/17 07:06:06;;;;;;;8.90;5.90;;;;;;;28.68;45.20;99614.11;103841;1253;107792;-64
2023/06/17 07:08:34;;;;;;;7.70;5.20;;;;;;;29.35;44.56;99616.59;103731;1253;96546;-64
2023/06/17 07:11:01;;;;;;;6.80;5.60;;;;;;;29.88;43.87;99613.39;103609;1253;137173;-64
2023/06/17 07:13:28;;;;;;;6.70;5.00;;;;;;;30.73;42.31;99604.05;103868;1250;96438;-64
2023/06/17 07:15:55;;;;;;;9.80;4.80;;;;;;;31.57;40.47;99599.75;103750;1253;137608;-65
2023/06/17 07:18:22;;;;;;;7.00;4.80;;;;;;;32.09;39.47;99604.21;103651;1249;107982;-65
2023/06/17 07:20:50;;;;;;;5.40;3.90;;;;;;;32.53;39.14;99606.64;103789;1251;96455;-65
2023/06/17 07:23:18;;;;;;;4.50;3.60;;;;;;;33.15;38.08;99604.09;103887;1250;137047;-65
2023/06/17 07:25:45;;;;;;;4.30;4.00;;;;;;;33.39;36.68;99605.52;103626;1249;96312;-64
2023/06/17 07:28:12;;;;;;;6.60;4.80;;;;;;;33.24;36.39;99606.36;103977;1250;137157;-65
2023/06/17 07:30:41;;;;;;;5.30;4.30;;;;;;;32.85;35.93;99608.98;103780;1253;99572;-65
2023/06/17 07:33:08;;;;;;;4.60;4.10;;;;;;;32.28;35.81;99609.87;103680;1250;137273;-67
2023/06/17 07:35:36;;;;;;;5.60;4.30;;;;;;;31.60;35.82;99605.02;103777;1253;107723;-65
2023/06/17 07:38:04;;;;;;;4.70;4.30;;;;;;;31.02;35.99;99608.88;103817;1251;96558;-65
2023/06/17 07:40:31;;;;;;;5.40;4.90;;;;;;;30.54;36.59;99608.52;103565;1249;137334;-65
2023/06/17 07:42:58;;;;;;;5.60;4.70;;;;;;;30.12;37.16;99607.02;103615;1253;107408;-65
2023/06/17 07:45:25;;;;;;;6.00;5.20;;;;;;;29.76;37.58;99605.27;103521;1251;259534;-65
2023/06/17 07:47:52;;;;;;;5.60;5.00;;;;;;;29.61;38.15;99601.31;103783;1251;108030;-67
2023/06/17 07:50:19;;;;;;;5.50;5.00;;;;;;;29.62;38.12;99599.69;103823;1250;96481;-63
2023/06/17 07:52:47;;;;;;;5.40;4.90;;;;;;;29.53;38.19;99601.96;103785;1251;137647;-64
2023/06/17 07:55:14;;;;;;;8.40;5.30;;;;;;;29.41;38.58;99599.82;103808;1251;107884;-63
2023/06/17 07:57:42;;;;;;;7.50;6.00;;;;;;;29.36;38.81;99600.42;103613;1250;138721;-64
2023/06/17 08:00:13;;;;;;;5.60;5.10;;;;;;;29.36;38.42;99598.20;103816;1253;108697;-65
2023/06/17 08:02:45;;;;;;;5.60;4.80;;;;;;;29.73;38.43;99604.31;103838;1249;96424;-64
2023/06/17 08:05:12;;;;;;;6.20;5.30;;;;;;;30.46;38.27;99604.39;103773;1250;137391;-62
2023/06/17 08:07:40;;;;;;;9.40;5.70;;;;;;;30.84;37.63;99596.88;103937;1251;108257;-62
2023/06/17 08:10:09;;;;;;;13.60;8.60;;;;;;;31.38;37.55;99597.10;103564;1250;137283;-64
2023/06/17 08:12:36;;;;;;;9.80;7.00;;;;;;;32.31;36.47;99596.70;103863;1253;108170;-64
2023/06/17 08:15:04;;;;;;;8.10;5.40;;;;;;;33.35;35.70;99589.34;103836;1249;96415;-65
2023/06/17 08:17:31;;;;;;;13.10;6.90;;;;;;;34.52;34.61;99585.93;103713;1250;102099;-63
2023/06/17 08:19:59;;;;;;;12.20;7.90;;;;;;;35.66;33.70;99578.65;103724;1249;100219;-63
2023/06/17 08:22:27;;;;;;;17.90;8.50;;;;;;;36.61;32.56;99574.21;103691;1251;137450;-64
2023/06/17 08:24:54;;;;;;;7.90;5.80;;;;;;;36.96;31.33;99572.11;103793;1250;99257;-63
2023/06/17 08:27:21;;;;;;;10.40;5.70;;;;;;;36.91;30.36;99570.54;103654;1250;137259;-67
2023/06/17 08:29:48;;;;;;;6.00;5.20;;;;;;;36.71;29.61;99571.25;103751;1251;102367;-68
2023/06/17 08:32:15;;;;;;;16.70;5.10;;;;;;;36.55;29.48;99569.34;103779;1250;99737;-68
2023/06/17 08:34:42;;;;;;;9.30;5.10;;;;;;;36.40;29.47;99567.83;103661;1253;137273;-70
2023/06/17 08:37:10;;;;;;;9.60;5.40;;;;;;;36.41;29.22;99566.34;103649;1253;100265;-66
2023/06/17 08:39:39;;;;;;;11.80;6.30;;;;;;;36.46;29.27;99565.10;103602;1251;137547;-66
2023/06/17 08:42:09;;;;;;;9.60;5.90;;;;;;;36.73;29.18;99561.40;103751;1251;103467;-67
2023/06/17 08:44:40;;;;;;;9.10;5.90;;;;;;;36.81;28.69;99560.20;103753;1249;98907;-67
2023/06/17 08:47:08;;;;;;;9.10;7.00;;;;;;;36.26;28.56;99565.48;103726;1251;138201;-66
2023/06/17 08:49:35;;;;;;;10.00;7.00;;;;;;;35.63;29.01;99568.83;103986;1250;98901;-67
2023/06/17 08:52:03;;;;;;;8.50;5.40;;;;;;;35.11;29.43;99564.48;103618;1249;137286;-65
2023/06/17 08:54:32;;;;;;;14.00;8.40;;;;;;;34.82;29.81;99562.42;104568;1249;102388;-64
2023/06/17 08:56:59;;;;;;;16.80;7.80;;;;;;;34.54;30.10;99569.44;103863;1253;100751;-64
2023/06/17 08:59:26;;;;;;;8.00;6.50;;;;;;;34.54;30.10;99568.02;103769;1253;137325;-66
2023/06/17 09:01:54;;;;;;;6.10;5.50;;;;;;;34.44;29.90;99568.08;103822;1251;99753;-66
2023/06/17 09:04:23;;;;;;;6.50;4.80;;;;;;;34.51;30.05;99567.54;104298;1249;137176;-66
2023/06/17 09:06:51;;;;;;;10.60;8.20;;;;;;;34.69;29.97;99560.41;103764;1253;102277;-67
2023/06/17 09:09:18;;;;;;;5.70;4.90;;;;;;;34.99;29.76;99561.60;103752;1249;138100;-63
2023/06/17 09:11:51;;;;;;;5.50;4.60;;;;;;;35.29;29.65;99559.45;103922;1250;96728;-66
2023/06/17 09:14:21;;;;;;;4.20;3.90;;;;;;;35.68;29.12;99558.11;103724;1251;100853;-68
2023/06/17 09:16:50;;;;;;;5.40;4.90;;;;;;;35.88;28.55;99555.77;103882;1249;137209;-67
2023/06/17 09:19:17;;;;;;;5.50;4.50;;;;;;;36.01;28.51;99558.12;103580;1253;102159;-66
2023/06/17 09:21:48;;;;;;;15.40;8.60;;;;;;;36.02;28.16;99558.23;103845;1250;137498;-68
2023/06/17 09:24:15;;;;;;;13.20;6.50;;;;;;;35.88;28.34;99562.91;103780;1251;96424;-67
2023/06/17 09:26:44;;;;;;;4.80;4.40;;;;;;;35.91;28.45;99562.16;103781;1250;100021;-67
2023/06/17 09:29:12;;;;;;;5.00;4.50;;;;;;;35.42;27.62;99560.09;103659;1248;137265;-66
2023/06/17 09:31:51;;;;;;;15.20;11.70;;;;;;;34.47;27.97;99562.95;103824;1253;102203;-67
2023/06/17 09:34:18;;;;;;;4.40;3.90;;;;;;;33.83;28.66;99564.31;103623;1249;137634;-66
2023/06/17 09:36:46;;;;;;;6.10;5.10;;;;;;;33.34;28.82;99562.10;104140;1249;96453;-66
2023/06/17 09:39:14;;;;;;;8.20;5.60;;;;;;;32.82;29.44;99559.13;103590;1249;137496;-67
2023/06/17 09:41:42;;;;;;;18.90;10.70;;;;;;;32.43;30.03;99559.63;103834;1250;97071;-66
2023/06/17 09:44:10;;;;;;;6.00;5.40;;;;;;;32.08;31.00;99563.09;103709;1250;110073;-67
2023/06/17 09:46:39;;;;;;;9.00;5.70;;;;;;;31.76;30.87;99558.73;103600;1249;137287;-69
2023/06/17 09:49:11;;;;;;;5.40;4.60;;;;;;;31.30;30.96;99560.55;103743;1253;96429;-67
2023/06/17 09:51:39;;;;;;;6.10;5.50;;;;;;;30.91;31.06;99560.09;104322;1252;137314;-67
2023/06/17 09:54:07;;;;;;;6.30;5.20;;;;;;;30.67;31.32;99564.60;103607;1250;96468;-65
2023/06/17 09:56:36;;;;;;;10.20;6.30;;;;;;;30.04;31.72;99562.61;104066;1250;110380;-66
2023/06/17 09:59:03;;;;;;;16.00;8.50;;;;;;;29.65;32.79;99562.64;103707;1249;137547;-65
2023/06/17 10:01:31;;;;;;;10.40;7.70;;;;;;;29.60;33.36;99564.89;103770;1250;96466;-64
2023/06/17 10:03:59;;;;;;;7.20;6.30;;;;;;;29.74;33.41;99565.27;103573;1250;137372;-65
2023/06/17 10:06:29;;;;;;;15.00;10.20;;;;;;;30.00;33.58;99562.75;103744;1253;96313;-65
2023/06/17 10:08:57;;;;;;;6.90;6.20;;;;;;;30.36;33.53;99560.63;103779;1253;110104;-67
2023/06/17 10:11:26;;;;;;;5.80;5.30;;;;;;;30.54;32.80;99559.42;103930;1249;138306;-69
2023/06/17 10:13:59;;;;;;;5.80;5.20;;;;;;;30.54;32.54;99561.20;103731;1250;96344;-72
2023/06/17 10:16:30;;;;;;;13.60;10.40;;;;;;;30.51;32.43;99562.33;103629;1248;137082;-72
2023/06/17 10:19:01;;;;;;;6.50;5.80;;;;;;;30.32;32.44;99565.47;103728;1250;96475;-70
2023/06/17 10:21:31;;;;;;;15.40;11.40;;;;;;;29.85;32.75;99566.30;103626;1251;137369;-69
2023/06/17 10:24:00;;;;;;;17.10;11.60;;;;;;;29.44;33.31;99570.41;104015;1253;107645;-71
2023/06/17 10:26:30;;;;;;;13.80;9.40;;;;;;;28.96;33.63;99567.33;104506;1251;96427;-68
2023/06/17 10:29:06;;;;;;;15.70;8.00;;;;;;;28.42;34.30;99572.60;103721;1251;137603;-74
2023/06/17 10:31:39;;;;;;;8.80;7.90;;;;;;;27.82;34.69;99573.13;103858;1251;96870;-68
2023/06/17 10:34:07;;;;;;;12.50;8.60;;;;;;;27.23;35.69;99574.04;103830;1250;137115;-67
2023/06/17 10:36:35;;;;;;;9.80;8.10;;;;;;;26.73;36.30;99578.69;103705;1249;107347;-67
2023/06/17 10:39:09;;;;;;;10.00;7.80;;;;;;;26.32;36.87;99584.41;103867;1251;96328;-67
2023/06/17 10:41:55;;;;;;;8.10;7.30;;;;;;;25.93;37.49;99587.52;103808;1251;107852;-73
2023/06/17 10:44:45;;;;;;;11.20;8.50;;;;;;;25.56;38.09;99587.84;103763;1251;96417;-68
2023/06/17 10:47:30;;;;;;;15.10;9.90;;;;;;;25.25;38.70;99589.38;103782;1251;137246;-68
2023/06/17 10:50:00;;;;;;;9.80;8.80;;;;;;;24.95;39.15;99583.93;103779;1251;107188;-67
2023/06/17 10:52:31;;;;;;;14.50;9.70;;;;;;;24.70;39.76;99584.69;103575;1251;137283;-68
2023/06/17 10:54:59;;;;;;;10.30;9.10;;;;;;;24.47;40.28;99587.68;103684;1251;108276;-68
2023/06/17 10:57:34;;;;;;;15.30;9.50;;;;;;;24.27;40.84;99594.83;103500;1253;139081;-69
2023/06/17 11:00:06;;;;;;;20.10;11.80;;;;;;;24.12;41.37;99592.80;103625;1251;110779;-70
2023/06/17 11:02:34;;;;;;;11.80;9.20;;;;;;;23.98;41.89;99588.27;104069;1253;106695;-71
2023/06/17 11:05:02;;;;;;;12.50;9.50;;;;;;;23.90;42.25;99591.05;105038;1251;138279;-70
2023/06/17 11:07:30;;;;;;;16.90;10.80;;;;;;;23.84;42.62;99592.50;103714;1253;107504;-70
2023/06/17 11:10:00;;;;;;;12.20;9.50;;;;;;;23.81;43.07;99590.31;103633;1251;137600;-67
2023/06/17 11:12:28;;;;;;;12.50;9.10;;;;;;;23.80;43.31;99588.86;105120;1250;108924;-72
2023/06/17 11:14:55;;;;;;;12.20;9.20;;;;;;;23.82;43.53;99591.48;103716;1251;107679;-72
2023/06/17 11:17:22;;;;;;;11.00;8.60;;;;;;;23.86;43.53;99591.45;103639;1251;137269;-64
2023/06/17 11:19:49;;;;;;;12.00;9.40;;;;;;;23.90;43.73;99595.54;103750;1251;108052;-64
2023/06/17 11:22:17;;;;;;;11.50;9.10;;;;;;;23.96;43.81;99592.23;103592;1253;137996;-63